• Join FlightAware (Why Join?)
  • Login
  • US Flag 
02:28PM EDT


 

Airport Tracker/Info


-or-


 

Live Flight TrackerFlight Track Log ✈ EGF3675 ✈ 06-Apr-2013 ✈ KLAX - KDEN

Flight Track Log - Related Links

Times and Time Zones

All times are in EDT time to prevent confusion due to time zone crossing. See the EGF3675 flight status page for this flight to view local times or setup timezone preferences in your user account.

Time Position Orientation Groundspeed Altitude Reporting Facility
EDT Latitude Longitude Course Direction KTS MPH feet Rate Location/Type
07:30PM 33.9328 -118.4342 55° Northeast 163 188 2,200  Level Los Angeles Center
07:31PM 33.9067 -118.5133 248° West 230 265 5,000 2,580 Climbing Los Angeles Center
07:32PM 34.1247 -118.0839 59° Northeast  Level FlightAware Approximate
07:32PM 33.8592 -118.5747 227° Southwest 278 320 7,600  Level Los Angeles Center
07:33PM 34.1914 -117.9505 59° Northeast  Level FlightAware Approximate
07:33PM 33.8128 -118.5111 131° Southeast 294 338 10,000  Level Los Angeles Center
07:34PM 34.2617 -117.8315 68° East  Level FlightAware Approximate
07:34PM 33.8794 -118.4519 36° Northeast 317 365 11,600  Level Los Angeles Center
07:35PM 34.3290 -117.7034 55° Northeast  Level FlightAware Approximate
07:35PM 33.9603 -118.3981 29° Northeast 351 404 14,000  Level Los Angeles Center
07:36PM 34.0150 -118.2928 58° Northeast 366 421 15,900 1,920 Climbing Los Angeles Center
07:37PM 34.0739 -118.1858 56° Northeast 377 434 18,000 1,860 Climbing Los Angeles Center
07:38PM 34.1358 -118.0772 55° Northeast 386 444 19,800 1,800 Climbing Los Angeles Center
07:39PM 34.2122 -117.9400 56° Northeast 405 466 21,700 1,620 Climbing Los Angeles Center
07:40PM 34.2783 -117.8222 56° Northeast 420 483 23,200 1,380 Climbing Los Angeles Center
07:41PM 34.3458 -117.7008 56° Northeast 431 496 24,600 1,260 Climbing Los Angeles Center
07:42PM 34.4181 -117.5706 56° Northeast 440 506 25,900 1,260 Climbing Los Angeles Center
07:43PM 34.4989 -117.4569 49° Northeast 448 516 27,300 1,200 Climbing Los Angeles Center
07:44PM 34.5808 -117.3419 49° Northeast 451 519 28,400 780 Climbing Los Angeles Center
07:45PM 34.6653 -117.2219 49° Northeast 463 533 29,000 660 Climbing Los Angeles Center
07:46PM 34.7514 -117.0986 50° Northeast 476 548 29,800 780 Climbing Los Angeles Center
07:47PM 34.8381 -116.9742 50° Northeast 484 557 30,600 840 Climbing Los Angeles Center
07:48PM 34.9425 -116.8242 50° Northeast 486 559 31,600 840 Climbing Los Angeles Center
07:50PM 35.0317 -116.6958 50° Northeast 492 566 32,400 720 Climbing Los Angeles Center
07:51PM 35.1219 -116.5678 49° Northeast 497 572 33,200 780 Climbing Los Angeles Center
07:52PM 35.2106 -116.4403 50° Northeast 497 572 34,100 780 Climbing Los Angeles Center
07:53PM 35.2808 -116.3392 50° Northeast 490 564 34,900 960 Climbing Los Angeles Center
07:54PM 35.4014 -116.1600 50° Northeast 488 562 36,100 960 Climbing Los Angeles Center
07:55PM 35.4889 -116.0350 49° Northeast 485 558 37,000 420 Climbing Los Angeles Center
07:56PM 35.5583 -115.9339 50° Northeast 485 558 37,000  Level Los Angeles Center
07:57PM 35.6617 -115.7814 50° Northeast 494 568 37,000  Level Los Angeles Center
07:58PM 35.7525 -115.6483 50° Northeast 505 581 37,000  Level Los Angeles Center
07:59PM 35.8597 -115.4878 50° Northeast 508 585 37,000  Level Los Angeles Center
08:00PM 35.9492 -115.3553 50° Northeast 507 583 37,000  Level Los Angeles Center
08:01PM 36.0358 -115.2208 51° Northeast 503 579 37,000  Level Los Angeles Center
08:02PM 36.1069 -115.0692 60° Northeast 521 600 37,000  Level Los Angeles Center
08:03PM 36.1653 -114.9047 66° East 523 602 37,000  Level Los Angeles Center
08:04PM 36.2347 -114.7075 66° East 524 603 37,000  Level Los Angeles Center
08:05PM 36.2922 -114.5425 67° East 523 602 37,000  Level Los Angeles Center
08:06PM 36.3503 -114.3764 67° East 526 605 37,000  Level Los Angeles Center
08:07PM 36.4083 -114.2106 66° East 525 604 37,000  Level Los Angeles Center
08:08PM 36.4658 -114.0425 67° East 529 609 37,000  Level Los Angeles Center
08:09PM 36.5333 -113.8450 67° East 531 611 37,000  Level Los Angeles Center
08:10PM 36.5914 -113.6775 67° East 529 609 37,000  Level Los Angeles Center
08:11PM 36.6475 -113.5086 67° East 529 609 37,000  Level Los Angeles Center
08:12PM 36.7042 -113.3383 67° East 533 613 37,000  Level Los Angeles Center
08:13PM 36.7619 -113.1706 67° East 531 611 37,000  Level Los Angeles Center
08:14PM 36.8183 -113.0003 67° East 533 613 37,000  Level Los Angeles Center
08:15PM 36.8861 -112.7953 67° East 535 616 37,000  Level Los Angeles Center
08:16PM 36.9419 -112.6261 68° East 532 612 37,000  Level Los Angeles Center
08:17PM 36.9986 -112.4550 67° East 536 617 37,000  Level Los Angeles Center
08:18PM 37.0539 -112.2822 68° East 539 620 37,000  Level Los Angeles Center
08:19PM 37.1117 -112.1106 67° East 540 621 37,000  Level Los Angeles Center
08:20PM 37.1786 -111.9047 68° East 536 617 37,000  Level Los Angeles Center
08:21PM 37.2100 -111.8033 69° East 535 616 37,000  Level Denver Center
08:22PM 37.2633 -111.6308 69° East 534 615 37,000  Level Denver Center
08:23PM 37.3181 -111.4575 68° East 536 617 37,000  Level Denver Center
08:24PM 37.3728 -111.2825 68° East 541 623 37,000  Level Denver Center
08:25PM 37.4264 -111.1086 69° East 537 618 37,000  Level Denver Center
08:26PM 37.4817 -110.9325 68° East 542 624 37,000  Level Denver Center
08:27PM 37.5469 -110.7225 69° East 539 620 37,000  Level Denver Center
08:28PM 37.5997 -110.5453 69° East 541 623 37,000  Level Denver Center
08:29PM 37.6517 -110.3747 69° East 540 621 37,000  Level Denver Center
08:30PM 37.7036 -110.2044 69° East 541 623 37,000  Level Denver Center
08:31PM 37.7622 -110.0058 69° East 539 620 37,000  Level Denver Center
08:32PM 37.8139 -109.8347 69° East 543 625 37,000  Level Denver Center
08:33PM 37.8731 -109.6353 69° East 541 623 37,000  Level Denver Center
08:34PM 37.9233 -109.4631 70° East 543 625 37,000  Level Denver Center
08:35PM 37.9736 -109.2914 70° East 542 624 37,000  Level Denver Center
08:36PM 38.0314 -109.0889 70° East 546 628 37,000  Level Denver Center
08:37PM 38.0803 -108.9144 70° East 549 632 37,000  Level Denver Center
08:38PM 38.1389 -108.7128 70° East 547 629 37,000  Level Denver Center
08:40PM 38.1878 -108.5428 70° East 540 621 37,000  Level Denver Center
08:41PM 38.2361 -108.3711 70° East 540 621 37,000  Level Denver Center
08:42PM 38.2925 -108.1689 70° East 544 626 37,000  Level Denver Center
08:43PM 38.3411 -107.9958 70° East 542 624 37,000  Level Denver Center
08:44PM 38.3961 -107.7944 71° East 541 623 37,000 -540 Level Denver Center
08:45PM 38.4725 -107.6092 62° Northeast 529 609 35,800 -1,140 Descending Denver Center
08:46PM 38.5519 -107.4258 61° Northeast 527 606 34,700 -1,080 Descending Denver Center
08:47PM 38.6194 -107.2697 61° Northeast 525 604 33,700 -1,020 Descending Denver Center
08:48PM 38.6922 -107.1028 61° Northeast 524 603 32,700 -1,020 Descending Denver Center
08:49PM 38.7600 -106.9439 61° Northeast 512 589 31,700 -1,020 Descending Denver Center
08:50PM 38.8264 -106.7858 62° Northeast 506 582 30,700 -1,080 Descending Denver Center
08:51PM 38.9022 -106.6067 61° Northeast 508 585 29,600 -1,080 Descending Denver Center
08:52PM 38.9667 -106.4558 61° Northeast 507 583 28,600 -960 Descending Denver Center
08:53PM 39.0306 -106.3031 62° Northeast 508 585 27,700 -840 Descending Denver Center
08:54PM 39.1014 -106.1472 60° Northeast 495 570 27,000 -960 Descending Denver Center
08:55PM 39.1647 -106.0081 60° Northeast 451 519 25,800 -1,620 Descending Denver Center
08:56PM 39.2331 -105.8494 61° Northeast 432 497 23,800 -1,860 Descending Denver Center
08:57PM 39.2919 -105.7175 60° Northeast 422 486 22,100 -1,380 Descending Denver Center
08:58PM 39.3472 -105.5919 60° Northeast 401 461 21,000 -960 Descending Denver Center
08:59PM 39.3969 -105.4781 61° Northeast 368 423 20,200 -540 Descending Denver Center
09:00PM 39.4567 -105.3669 55° Northeast 351 404 19,900 -840 Descending Denver Center
09:01PM 39.5100 -105.2617 57° Northeast 359 413 18,500 -1,980 Descending Denver Center
09:02PM 39.5656 -105.1578 55° Northeast 352 405 15,900 -2,040 Descending Denver Center
09:03PM 39.6208 -105.0517 56° Northeast 330 380 14,400 -1,320 Descending Denver Center
09:04PM 39.6694 -104.9575 56° Northeast 315 362 13,300 -720 Descending Denver Center
09:05PM 39.7169 -104.8683 55° Northeast 301 346 13,000 -720 Descending Denver Center
09:06PM 39.7978 -104.8411 15° North 300 345 11,900 -960 Descending Denver Center
09:07PM 39.8883 -104.8397 North 301 346 11,100 -840 Descending Denver Center
09:08PM 39.9617 -104.8386 North 261 300 10,300 -1,140 Descending Denver Center
09:09PM 39.9992 -104.7817 49° Northeast 220 253 8,900 -1,380 Descending Denver Center